sensor_id;sensor_type;location;lat;lon;timestamp;temperature;humidity
39957;DHT22;48483;44.640;7.494;2022-11-28T00:02:19;6.50;99.90
39957;DHT22;48483;44.640;7.494;2022-11-28T00:04:50;6.40;99.90
39957;DHT22;48483;44.640;7.494;2022-11-28T00:07:16;6.40;99.90
39957;DHT22;48483;44.640;7.494;2022-11-28T00:09:43;6.40;99.90
39957;DHT22;48483;44.640;7.494;2022-11-28T00:12:10;6.40;99.90
39957;DHT22;48483;44.640;7.494;2022-11-28T00:14:36;6.40;99.90
39957;DHT22;48483;44.640;7.494;2022-11-28T00:17:03;6.40;99.90
39957;DHT22;48483;44.640;7.494;2022-11-28T00:19:31;6.40;99.90
39957;DHT22;48483;44.640;7.494;2022-11-28T00:21:58;6.40;99.90
39957;DHT22;48483;44.640;7.494;2022-11-28T00:24:24;6.30;99.90
39957;DHT22;48483;44.640;7.494;2022-11-28T00:26:51;6.30;99.90
39957;DHT22;48483;44.640;7.494;2022-11-28T00:29:18;6.20;99.90
39957;DHT22;48483;44.640;7.494;2022-11-28T00:31:44;6.20;99.90
39957;DHT22;48483;44.640;7.494;2022-11-28T00:34:13;6.20;99.90
39957;DHT22;48483;44.640;7.494;2022-11-28T00:36:42;6.20;99.90
39957;DHT22;48483;44.640;7.494;2022-11-28T00:39:09;6.20;99.90
39957;DHT22;48483;44.640;7.494;2022-11-28T00:41:36;6.10;99.90
39957;DHT22;48483;44.640;7.494;2022-11-28T00:44:02;6.10;99.90
39957;DHT22;48483;44.640;7.494;2022-11-28T00:46:29;6.10;99.90
39957;DHT22;48483;44.640;7.494;2022-11-28T00:48:56;6.10;99.90
39957;DHT22;48483;44.640;7.494;2022-11-28T00:51:25;6.10;99.90
39957;DHT22;48483;44.640;7.494;2022-11-28T00:53:55;6.10;99.90
39957;DHT22;48483;44.640;7.494;2022-11-28T00:56:25;6.10;99.90
39957;DHT22;48483;44.640;7.494;2022-11-28T00:58:53;6.10;99.90
39957;DHT22;48483;44.640;7.494;2022-11-28T01:01:22;6.10;99.90
39957;DHT22;48483;44.640;7.494;2022-11-28T01:03:52;6.20;99.90
39957;DHT22;48483;44.640;7.494;2022-11-28T01:06:21;6.20;99.90
39957;DHT22;48483;44.640;7.494;2022-11-28T01:08:48;6.20;99.90
39957;DHT22;48483;44.640;7.494;2022-11-28T01:11:16;6.30;99.90
39957;DHT22;48483;44.640;7.494;2022-11-28T01:13:43;6.20;99.90
39957;DHT22;48483;44.640;7.494;2022-11-28T01:16:10;6.30;99.90
39957;DHT22;48483;44.640;7.494;2022-11-28T01:18:37;6.20;99.90
39957;DHT22;48483;44.640;7.494;2022-11-28T01:21:04;6.30;99.90
39957;DHT22;48483;44.640;7.494;2022-11-28T01:23:31;6.30;99.90
39957;DHT22;48483;44.640;7.494;2022-11-28T01:25:58;6.30;99.90
39957;DHT22;48483;44.640;7.494;2022-11-28T01:28:27;6.40;99.90
39957;DHT22;48483;44.640;7.494;2022-11-28T01:30:54;6.40;99.90
39957;DHT22;48483;44.640;7.494;2022-11-28T01:33:21;6.40;99.90
39957;DHT22;48483;44.640;7.494;2022-11-28T01:35:53;6.40;99.90
39957;DHT22;48483;44.640;7.494;2022-11-28T01:38:20;6.30;99.90
39957;DHT22;48483;44.640;7.494;2022-11-28T01:40:47;6.30;99.90
39957;DHT22;48483;44.640;7.494;2022-11-28T01:43:14;6.40;99.90
39957;DHT22;48483;44.640;7.494;2022-11-28T01:45:42;6.40;99.90
39957;DHT22;48483;44.640;7.494;2022-11-28T01:48:11;6.40;99.90
39957;DHT22;48483;44.640;7.494;2022-11-28T01:50:40;6.40;99.90
39957;DHT22;48483;44.640;7.494;2022-11-28T01:53:09;6.40;99.90
39957;DHT22;48483;44.640;7.494;2022-11-28T01:55:41;6.40;99.90
39957;DHT22;48483;44.640;7.494;2022-11-28T01:58:09;6.40;99.90
39957;DHT22;48483;44.640;7.494;2022-11-28T02:00:36;6.30;99.90
39957;DHT22;48483;44.640;7.494;2022-11-28T02:03:07;6.30;99.90
39957;DHT22;48483;44.640;7.494;2022-11-28T02:05:35;6.30;99.90
39957;DHT22;48483;44.640;7.494;2022-11-28T02:08:03;6.20;99.90
39957;DHT22;48483;44.640;7.494;2022-11-28T02:10:39;6.20;99.90
39957;DHT22;48483;44.640;7.494;2022-11-28T02:13:20;6.20;99.90
39957;DHT22;48483;44.640;7.494;2022-11-28T02:16:03;6.20;99.90
39957;DHT22;48483;44.640;7.494;2022-11-28T02:18:46;6.20;99.90
39957;DHT22;48483;44.640;7.494;2022-11-28T02:21:31;6.30;99.90
39957;DHT22;48483;44.640;7.494;2022-11-28T02:27:27;6.20;99.90
39957;DHT22;48483;44.640;7.494;2022-11-28T02:33:11;6.30;99.90
39957;DHT22;48483;44.640;7.494;2022-11-28T02:35:51;6.30;99.90
39957;DHT22;48483;44.640;7.494;2022-11-28T02:38:24;6.30;99.90
39957;DHT22;48483;44.640;7.494;2022-11-28T02:41:00;6.30;99.90
39957;DHT22;48483;44.640;7.494;2022-11-28T02:43:32;6.40;99.90
39957;DHT22;48483;44.640;7.494;2022-11-28T02:46:05;6.40;99.90
39957;DHT22;48483;44.640;7.494;2022-11-28T02:48:39;6.50;99.90
39957;DHT22;48483;44.640;7.494;2022-11-28T02:51:11;6.50;99.90
39957;DHT22;48483;44.640;7.494;2022-11-28T02:53:40;6.60;99.90
39957;DHT22;48483;44.640;7.494;2022-11-28T02:56:09;6.50;99.90
39957;DHT22;48483;44.640;7.494;2022-11-28T02:58:37;6.60;99.90
39957;DHT22;48483;44.640;7.494;2022-11-28T03:01:05;6.60;99.90
39957;DHT22;48483;44.640;7.494;2022-11-28T03:03:51;6.60;99.90
39957;DHT22;48483;44.640;7.494;2022-11-28T03:06:30;6.60;99.90
39957;DHT22;48483;44.640;7.494;2022-11-28T03:09:10;6.60;99.90
39957;DHT22;48483;44.640;7.494;2022-11-28T03:11:42;6.70;99.90
39957;DHT22;48483;44.640;7.494;2022-11-28T03:14:18;6.70;99.90
39957;DHT22;48483;44.640;7.494;2022-11-28T03:16:57;6.70;99.90
39957;DHT22;48483;44.640;7.494;2022-11-28T03:19:30;6.70;99.90
39957;DHT22;48483;44.640;7.494;2022-11-28T03:22:03;6.70;99.90
39957;DHT22;48483;44.640;7.494;2022-11-28T03:24:34;6.70;99.90
39957;DHT22;48483;44.640;7.494;2022-11-28T03:27:06;6.80;99.90
39957;DHT22;48483;44.640;7.494;2022-11-28T03:29:39;6.80;99.90
39957;DHT22;48483;44.640;7.494;2022-11-28T03:32:09;6.80;99.90
39957;DHT22;48483;44.640;7.494;2022-11-28T03:34:40;6.80;99.90
39957;DHT22;48483;44.640;7.494;2022-11-28T03:37:12;6.80;99.90
39957;DHT22;48483;44.640;7.494;2022-11-28T03:39:41;6.80;99.90
39957;DHT22;48483;44.640;7.494;2022-11-28T03:42:10;6.80;99.90
39957;DHT22;48483;44.640;7.494;2022-11-28T03:44:42;6.80;99.90
39957;DHT22;48483;44.640;7.494;2022-11-28T03:47:10;6.80;99.90
39957;DHT22;48483;44.640;7.494;2022-11-28T03:49:40;6.90;99.90
39957;DHT22;48483;44.640;7.494;2022-11-28T03:52:13;6.80;99.90
39957;DHT22;48483;44.640;7.494;2022-11-28T03:54:45;6.80;99.90
39957;DHT22;48483;44.640;7.494;2022-11-28T03:57:18;6.80;99.90
39957;DHT22;48483;44.640;7.494;2022-11-28T03:59:47;6.90;99.90
39957;DHT22;48483;44.640;7.494;2022-11-28T04:02:19;6.90;99.90
39957;DHT22;48483;44.640;7.494;2022-11-28T04:04:54;6.90;99.90
39957;DHT22;48483;44.640;7.494;2022-11-28T04:07:30;6.90;99.90
39957;DHT22;48483;44.640;7.494;2022-11-28T04:10:03;6.90;99.90
39957;DHT22;48483;44.640;7.494;2022-11-28T04:12:39;6.90;99.90
39957;DHT22;48483;44.640;7.494;2022-11-28T04:15:13;6.90;99.90
39957;DHT22;48483;44.640;7.494;2022-11-28T04:17:47;6.90;99.90
39957;DHT22;48483;44.640;7.494;2022-11-28T04:20:20;6.90;99.90
39957;DHT22;48483;44.640;7.494;2022-11-28T04:22:54;6.90;99.90
39957;DHT22;48483;44.640;7.494;2022-11-28T04:25:25;6.90;99.90
39957;DHT22;48483;44.640;7.494;2022-11-28T04:27:56;6.90;99.90
39957;DHT22;48483;44.640;7.494;2022-11-28T04:30:24;6.90;99.90
39957;DHT22;48483;44.640;7.494;2022-11-28T04:32:54;6.90;99.90
39957;DHT22;48483;44.640;7.494;2022-11-28T04:35:27;6.90;99.90
39957;DHT22;48483;44.640;7.494;2022-11-28T04:37:56;6.90;99.90
39957;DHT22;48483;44.640;7.494;2022-11-28T04:40:24;6.90;99.90
39957;DHT22;48483;44.640;7.494;2022-11-28T04:42:55;6.90;99.90
39957;DHT22;48483;44.640;7.494;2022-11-28T04:45:26;7.00;99.90
39957;DHT22;48483;44.640;7.494;2022-11-28T04:47:54;6.90;99.90
39957;DHT22;48483;44.640;7.494;2022-11-28T04:50:26;6.90;99.90
39957;DHT22;48483;44.640;7.494;2022-11-28T04:52:58;6.90;99.90
39957;DHT22;48483;44.640;7.494;2022-11-28T04:55:31;6.90;99.90
39957;DHT22;48483;44.640;7.494;2022-11-28T04:58:06;6.90;99.90
39957;DHT22;48483;44.640;7.494;2022-11-28T05:00:35;6.90;99.90
39957;DHT22;48483;44.640;7.494;2022-11-28T05:03:03;6.90;99.90
39957;DHT22;48483;44.640;7.494;2022-11-28T05:05:41;6.90;99.90
39957;DHT22;48483;44.640;7.494;2022-11-28T05:08:08;6.90;99.90
39957;DHT22;48483;44.640;7.494;2022-11-28T05:10:35;6.90;99.90
39957;DHT22;48483;44.640;7.494;2022-11-28T05:13:02;7.00;99.90
39957;DHT22;48483;44.640;7.494;2022-11-28T05:15:28;7.00;99.90
39957;DHT22;48483;44.640;7.494;2022-11-28T05:17:55;7.00;99.90
39957;DHT22;48483;44.640;7.494;2022-11-28T05:20:22;6.90;99.90
39957;DHT22;48483;44.640;7.494;2022-11-28T05:22:50;7.00;99.90
39957;DHT22;48483;44.640;7.494;2022-11-28T05:25:17;6.90;99.90
39957;DHT22;48483;44.640;7.494;2022-11-28T05:27:43;7.00;99.90
39957;DHT22;48483;44.640;7.494;2022-11-28T05:30:11;6.90;99.90
39957;DHT22;48483;44.640;7.494;2022-11-28T05:32:38;6.90;99.90
39957;DHT22;48483;44.640;7.494;2022-11-28T05:35:05;6.80;99.90
39957;DHT22;48483;44.640;7.494;2022-11-28T05:37:32;6.80;99.90
39957;DHT22;48483;44.640;7.494;2022-11-28T05:40:00;6.80;99.90
39957;DHT22;48483;44.640;7.494;2022-11-28T05:42:30;6.80;99.90
39957;DHT22;48483;44.640;7.494;2022-11-28T05:44:57;6.70;99.90
39957;DHT22;48483;44.640;7.494;2022-11-28T05:47:23;6.70;99.90
39957;DHT22;48483;44.640;7.494;2022-11-28T05:49:50;6.80;99.90
39957;DHT22;48483;44.640;7.494;2022-11-28T05:52:17;6.80;99.90
39957;DHT22;48483;44.640;7.494;2022-11-28T05:54:43;6.80;99.90
39957;DHT22;48483;44.640;7.494;2022-11-28T05:57:11;6.80;99.90
39957;DHT22;48483;44.640;7.494;2022-11-28T05:59:38;6.70;99.90
39957;DHT22;48483;44.640;7.494;2022-11-28T06:02:05;6.80;99.90
39957;DHT22;48483;44.640;7.494;2022-11-28T06:04:31;6.80;99.90
39957;DHT22;48483;44.640;7.494;2022-11-28T06:06:58;6.80;99.90
39957;DHT22;48483;44.640;7.494;2022-11-28T06:09:25;6.80;99.90
39957;DHT22;48483;44.640;7.494;2022-11-28T06:11:52;6.80;99.90
39957;DHT22;48483;44.640;7.494;2022-11-28T06:14:20;6.80;99.90
39957;DHT22;48483;44.640;7.494;2022-11-28T06:16:46;6.70;99.90
39957;DHT22;48483;44.640;7.494;2022-11-28T06:19:14;6.70;99.90
39957;DHT22;48483;44.640;7.494;2022-11-28T06:21:41;6.70;99.90
39957;DHT22;48483;44.640;7.494;2022-11-28T06:24:09;6.60;99.90
39957;DHT22;48483;44.640;7.494;2022-11-28T06:26:36;6.60;99.90
39957;DHT22;48483;44.640;7.494;2022-11-28T06:29:03;6.60;99.90
39957;DHT22;48483;44.640;7.494;2022-11-28T06:31:31;6.60;99.90
39957;DHT22;48483;44.640;7.494;2022-11-28T06:33:57;6.50;99.90
39957;DHT22;48483;44.640;7.494;2022-11-28T06:36:25;6.50;99.90
39957;DHT22;48483;44.640;7.494;2022-11-28T06:38:52;6.50;99.90
39957;DHT22;48483;44.640;7.494;2022-11-28T06:41:20;6.50;99.90
39957;DHT22;48483;44.640;7.494;2022-11-28T06:43:50;6.50;99.90
39957;DHT22;48483;44.640;7.494;2022-11-28T06:46:18;6.50;99.90
39957;DHT22;48483;44.640;7.494;2022-11-28T06:48:49;6.50;99.90
39957;DHT22;48483;44.640;7.494;2022-11-28T06:51:17;6.50;99.90
39957;DHT22;48483;44.640;7.494;2022-11-28T06:53:44;6.50;99.90
39957;DHT22;48483;44.640;7.494;2022-11-28T06:56:13;6.60;99.90
39957;DHT22;48483;44.640;7.494;2022-11-28T06:58:40;6.50;99.90
39957;DHT22;48483;44.640;7.494;2022-11-28T07:01:09;6.50;99.90
39957;DHT22;48483;44.640;7.494;2022-11-28T07:03:37;6.60;99.90
39957;DHT22;48483;44.640;7.494;2022-11-28T07:06:07;6.60;99.90
39957;DHT22;48483;44.640;7.494;2022-11-28T07:08:34;6.60;99.90
39957;DHT22;48483;44.640;7.494;2022-11-28T07:11:11;6.60;99.90
39957;DHT22;48483;44.640;7.494;2022-11-28T07:13:39;6.70;99.90
39957;DHT22;48483;44.640;7.494;2022-11-28T07:16:07;6.70;99.90
39957;DHT22;48483;44.640;7.494;2022-11-28T07:18:36;6.80;99.90
39957;DHT22;48483;44.640;7.494;2022-11-28T07:21:03;6.70;99.90
39957;DHT22;48483;44.640;7.494;2022-11-28T07:23:31;6.80;99.90
39957;DHT22;48483;44.640;7.494;2022-11-28T07:25:58;6.80;99.90
39957;DHT22;48483;44.640;7.494;2022-11-28T07:28:25;6.80;99.90
39957;DHT22;48483;44.640;7.494;2022-11-28T07:31:00;6.80;99.90
39957;DHT22;48483;44.640;7.494;2022-11-28T07:33:27;6.80;99.90
39957;DHT22;48483;44.640;7.494;2022-11-28T07:35:57;6.90;99.90
39957;DHT22;48483;44.640;7.494;2022-11-28T07:38:24;6.80;99.90
39957;DHT22;48483;44.640;7.494;2022-11-28T07:40:52;6.80;99.90
39957;DHT22;48483;44.640;7.494;2022-11-28T07:43:19;6.80;99.90
39957;DHT22;48483;44.640;7.494;2022-11-28T07:45:45;6.80;99.90
39957;DHT22;48483;44.640;7.494;2022-11-28T07:48:12;6.80;99.90
39957;DHT22;48483;44.640;7.494;2022-11-28T07:50:38;6.80;99.90
39957;DHT22;48483;44.640;7.494;2022-11-28T07:53:05;6.80;99.90
39957;DHT22;48483;44.640;7.494;2022-11-28T07:55:34;6.80;99.90
39957;DHT22;48483;44.640;7.494;2022-11-28T07:58:03;6.80;99.90
39957;DHT22;48483;44.640;7.494;2022-11-28T08:00:29;6.80;99.90
39957;DHT22;48483;44.640;7.494;2022-11-28T08:02:56;6.80;99.90
39957;DHT22;48483;44.640;7.494;2022-11-28T08:05:23;6.90;99.90
39957;DHT22;48483;44.640;7.494;2022-11-28T08:07:49;6.90;99.90
39957;DHT22;48483;44.640;7.494;2022-11-28T08:10:16;6.90;99.90
39957;DHT22;48483;44.640;7.494;2022-11-28T08:12:43;6.90;99.90
39957;DHT22;48483;44.640;7.494;2022-11-28T08:15:11;6.90;99.90
39957;DHT22;48483;44.640;7.494;2022-11-28T08:17:38;6.90;99.90
39957;DHT22;48483;44.640;7.494;2022-11-28T08:20:06;6.90;99.90
39957;DHT22;48483;44.640;7.494;2022-11-28T08:22:33;6.90;99.90
39957;DHT22;48483;44.640;7.494;2022-11-28T08:24:59;6.90;99.90
39957;DHT22;48483;44.640;7.494;2022-11-28T08:27:26;6.90;99.90
39957;DHT22;48483;44.640;7.494;2022-11-28T08:29:53;6.80;99.90
39957;DHT22;48483;44.640;7.494;2022-11-28T08:32:21;6.90;99.90
39957;DHT22;48483;44.640;7.494;2022-11-28T08:34:48;6.90;99.90
39957;DHT22;48483;44.640;7.494;2022-11-28T08:37:14;6.90;99.90
39957;DHT22;48483;44.640;7.494;2022-11-28T08:39:41;6.90;99.90
39957;DHT22;48483;44.640;7.494;2022-11-28T08:42:08;7.00;99.90
39957;DHT22;48483;44.640;7.494;2022-11-28T08:44:34;7.00;99.90
39957;DHT22;48483;44.640;7.494;2022-11-28T08:47:01;7.00;99.90
39957;DHT22;48483;44.640;7.494;2022-11-28T08:49:30;7.10;99.90
39957;DHT22;48483;44.640;7.494;2022-11-28T08:51:56;7.00;99.90
39957;DHT22;48483;44.640;7.494;2022-11-28T08:54:23;7.00;99.90
39957;DHT22;48483;44.640;7.494;2022-11-28T08:56:49;7.10;99.90
39957;DHT22;48483;44.640;7.494;2022-11-28T08:59:16;7.10;99.90
39957;DHT22;48483;44.640;7.494;2022-11-28T09:01:43;7.10;99.90
39957;DHT22;48483;44.640;7.494;2022-11-28T09:04:10;7.10;99.90
39957;DHT22;48483;44.640;7.494;2022-11-28T09:06:39;7.20;99.90
39957;DHT22;48483;44.640;7.494;2022-11-28T09:09:05;7.20;99.90
39957;DHT22;48483;44.640;7.494;2022-11-28T09:11:33;7.20;99.90
39957;DHT22;48483;44.640;7.494;2022-11-28T09:14:00;7.10;99.90
39957;DHT22;48483;44.640;7.494;2022-11-28T09:16:27;7.20;99.90
39957;DHT22;48483;44.640;7.494;2022-11-28T09:18:54;7.20;99.90
39957;DHT22;48483;44.640;7.494;2022-11-28T09:21:22;7.20;99.90
39957;DHT22;48483;44.640;7.494;2022-11-28T09:23:53;7.20;99.90
39957;DHT22;48483;44.640;7.494;2022-11-28T09:26:22;7.20;99.90
39957;DHT22;48483;44.640;7.494;2022-11-28T09:28:50;7.20;99.90
39957;DHT22;48483;44.640;7.494;2022-11-28T09:31:17;7.20;99.90
39957;DHT22;48483;44.640;7.494;2022-11-28T09:33:44;7.20;99.90
39957;DHT22;48483;44.640;7.494;2022-11-28T09:36:14;7.30;99.90
39957;DHT22;48483;44.640;7.494;2022-11-28T09:38:41;7.30;99.90
39957;DHT22;48483;44.640;7.494;2022-11-28T09:41:27;7.30;99.90
39957;DHT22;48483;44.640;7.494;2022-11-28T09:43:57;7.40;99.90
39957;DHT22;48483;44.640;7.494;2022-11-28T09:46:28;7.40;99.90
39957;DHT22;48483;44.640;7.494;2022-11-28T09:48:59;7.40;99.90
39957;DHT22;48483;44.640;7.494;2022-11-28T09:51:27;7.50;99.90
39957;DHT22;48483;44.640;7.494;2022-11-28T09:54:01;7.40;99.90
39957;DHT22;48483;44.640;7.494;2022-11-28T09:56:32;7.40;99.90
39957;DHT22;48483;44.640;7.494;2022-11-28T09:59:00;7.40;99.90
39957;DHT22;48483;44.640;7.494;2022-11-28T10:01:36;7.50;99.90
39957;DHT22;48483;44.640;7.494;2022-11-28T10:04:08;7.50;99.90
39957;DHT22;48483;44.640;7.494;2022-11-28T10:06:41;7.50;99.90
39957;DHT22;48483;44.640;7.494;2022-11-28T10:09:21;7.50;99.90
39957;DHT22;48483;44.640;7.494;2022-11-28T10:12:04;7.50;99.90
39957;DHT22;48483;44.640;7.494;2022-11-28T10:17:42;7.40;99.90
39957;DHT22;48483;44.640;7.494;2022-11-28T10:20:14;7.50;99.90
39957;DHT22;48483;44.640;7.494;2022-11-28T10:22:49;7.50;99.90
39957;DHT22;48483;44.640;7.494;2022-11-28T10:25:19;7.60;99.90
39957;DHT22;48483;44.640;7.494;2022-11-28T10:27:49;7.60;99.90
39957;DHT22;48483;44.640;7.494;2022-11-28T10:30:21;7.70;99.90
39957;DHT22;48483;44.640;7.494;2022-11-28T10:32:58;7.70;99.90
39957;DHT22;48483;44.640;7.494;2022-11-28T10:35:32;7.60;99.90
39957;DHT22;48483;44.640;7.494;2022-11-28T10:37:59;7.60;99.90
39957;DHT22;48483;44.640;7.494;2022-11-28T10:40:33;7.70;99.90
39957;DHT22;48483;44.640;7.494;2022-11-28T10:43:05;7.70;99.90
39957;DHT22;48483;44.640;7.494;2022-11-28T10:45:45;7.70;99.90
39957;DHT22;48483;44.640;7.494;2022-11-28T10:48:38;7.70;99.90
39957;DHT22;48483;44.640;7.494;2022-11-28T10:51:24;7.60;99.90
39957;DHT22;48483;44.640;7.494;2022-11-28T10:54:08;7.70;99.90
39957;DHT22;48483;44.640;7.494;2022-11-28T10:56:46;7.70;99.90
39957;DHT22;48483;44.640;7.494;2022-11-28T10:59:29;7.70;99.90
39957;DHT22;48483;44.640;7.494;2022-11-28T11:01:57;7.70;99.90
39957;DHT22;48483;44.640;7.494;2022-11-28T11:04:26;7.70;99.90
39957;DHT22;48483;44.640;7.494;2022-11-28T11:07:01;7.70;99.90
39957;DHT22;48483;44.640;7.494;2022-11-28T11:09:35;7.70;99.90
39957;DHT22;48483;44.640;7.494;2022-11-28T11:12:02;7.80;99.90
39957;DHT22;48483;44.640;7.494;2022-11-28T11:14:37;7.80;99.90
39957;DHT22;48483;44.640;7.494;2022-11-28T11:17:08;7.80;99.90
39957;DHT22;48483;44.640;7.494;2022-11-28T11:19:48;7.80;99.90
39957;DHT22;48483;44.640;7.494;2022-11-28T11:22:18;7.80;99.90
39957;DHT22;48483;44.640;7.494;2022-11-28T11:24:57;7.80;99.90
39957;DHT22;48483;44.640;7.494;2022-11-28T11:27:29;7.80;99.90
39957;DHT22;48483;44.640;7.494;2022-11-28T11:29:57;7.80;99.90
39957;DHT22;48483;44.640;7.494;2022-11-28T11:32:27;7.90;99.90
39957;DHT22;48483;44.640;7.494;2022-11-28T11:34:55;7.90;99.90
39957;DHT22;48483;44.640;7.494;2022-11-28T11:37:31;7.90;99.90
39957;DHT22;48483;44.640;7.494;2022-11-28T11:39:59;7.90;99.90
39957;DHT22;48483;44.640;7.494;2022-11-28T11:42:27;7.90;99.90
39957;DHT22;48483;44.640;7.494;2022-11-28T11:44:56;7.80;99.90
39957;DHT22;48483;44.640;7.494;2022-11-28T11:47:39;7.80;99.90
39957;DHT22;48483;44.640;7.494;2022-11-28T11:50:15;7.80;99.90
39957;DHT22;48483;44.640;7.494;2022-11-28T11:52:42;7.70;99.90
39957;DHT22;48483;44.640;7.494;2022-11-28T11:55:12;7.60;99.90
39957;DHT22;48483;44.640;7.494;2022-11-28T11:57:45;7.60;99.90
39957;DHT22;48483;44.640;7.494;2022-11-28T12:00:17;7.60;99.90
39957;DHT22;48483;44.640;7.494;2022-11-28T12:02:50;7.50;99.90
39957;DHT22;48483;44.640;7.494;2022-11-28T12:05:19;7.60;99.90
39957;DHT22;48483;44.640;7.494;2022-11-28T12:07:53;7.60;99.90
39957;DHT22;48483;44.640;7.494;2022-11-28T12:10:24;7.70;99.90
39957;DHT22;48483;44.640;7.494;2022-11-28T12:12:52;7.70;99.90
39957;DHT22;48483;44.640;7.494;2022-11-28T12:15:26;7.80;99.90
39957;DHT22;48483;44.640;7.494;2022-11-28T12:18:07;7.90;99.90
39957;DHT22;48483;44.640;7.494;2022-11-28T12:20:40;8.00;99.90
39957;DHT22;48483;44.640;7.494;2022-11-28T12:26:07;8.10;99.90
39957;DHT22;48483;44.640;7.494;2022-11-28T12:28:50;8.10;99.90
39957;DHT22;48483;44.640;7.494;2022-11-28T12:31:24;8.10;99.90
39957;DHT22;48483;44.640;7.494;2022-11-28T12:34:02;8.20;99.90
39957;DHT22;48483;44.640;7.494;2022-11-28T12:36:36;8.20;99.90
39957;DHT22;48483;44.640;7.494;2022-11-28T12:39:16;8.20;99.90
39957;DHT22;48483;44.640;7.494;2022-11-28T12:47:42;8.10;99.90
39957;DHT22;48483;44.640;7.494;2022-11-28T12:50:22;8.00;99.90
39957;DHT22;48483;44.640;7.494;2022-11-28T12:53:01;8.10;99.90
39957;DHT22;48483;44.640;7.494;2022-11-28T12:55:35;8.10;99.90
39957;DHT22;48483;44.640;7.494;2022-11-28T12:58:14;8.20;99.90
39957;DHT22;48483;44.640;7.494;2022-11-28T13:00:49;8.20;99.90
39957;DHT22;48483;44.640;7.494;2022-11-28T13:03:32;8.20;99.90
39957;DHT22;48483;44.640;7.494;2022-11-28T13:06:10;8.30;99.90
39957;DHT22;48483;44.640;7.494;2022-11-28T13:08:51;8.30;99.90
39957;DHT22;48483;44.640;7.494;2022-11-28T13:11:29;8.30;99.90
39957;DHT22;48483;44.640;7.494;2022-11-28T13:14:04;8.30;99.90
39957;DHT22;48483;44.640;7.494;2022-11-28T13:16:40;8.30;99.90
39957;DHT22;48483;44.640;7.494;2022-11-28T13:19:14;8.40;99.90
39957;DHT22;48483;44.640;7.494;2022-11-28T13:21:50;8.40;99.90
39957;DHT22;48483;44.640;7.494;2022-11-28T13:24:24;8.40;99.90
39957;DHT22;48483;44.640;7.494;2022-11-28T13:26:59;8.40;99.90
39957;DHT22;48483;44.640;7.494;2022-11-28T13:29:34;8.40;99.90
39957;DHT22;48483;44.640;7.494;2022-11-28T13:32:08;8.40;99.90
39957;DHT22;48483;44.640;7.494;2022-11-28T13:34:38;8.40;99.90
39957;DHT22;48483;44.640;7.494;2022-11-28T13:37:09;8.40;99.90
39957;DHT22;48483;44.640;7.494;2022-11-28T13:39:40;8.40;99.90
39957;DHT22;48483;44.640;7.494;2022-11-28T13:42:23;8.40;99.90
39957;DHT22;48483;44.640;7.494;2022-11-28T13:44:58;8.50;99.90
39957;DHT22;48483;44.640;7.494;2022-11-28T13:47:31;8.50;99.90
39957;DHT22;48483;44.640;7.494;2022-11-28T13:50:32;8.50;99.90
39957;DHT22;48483;44.640;7.494;2022-11-28T13:52:59;8.40;99.90
39957;DHT22;48483;44.640;7.494;2022-11-28T13:55:38;8.50;99.90
39957;DHT22;48483;44.640;7.494;2022-11-28T13:58:16;8.50;99.90
39957;DHT22;48483;44.640;7.494;2022-11-28T14:00:59;8.40;99.90
39957;DHT22;48483;44.640;7.494;2022-11-28T14:03:26;8.40;99.90
39957;DHT22;48483;44.640;7.494;2022-11-28T14:05:58;8.40;99.90
39957;DHT22;48483;44.640;7.494;2022-11-28T14:08:29;8.40;99.90
39957;DHT22;48483;44.640;7.494;2022-11-28T14:11:15;8.40;99.90
39957;DHT22;48483;44.640;7.494;2022-11-28T14:14:11;8.40;99.90
39957;DHT22;48483;44.640;7.494;2022-11-28T14:16:50;8.40;99.90
39957;DHT22;48483;44.640;7.494;2022-11-28T14:19:27;8.40;99.90
39957;DHT22;48483;44.640;7.494;2022-11-28T14:22:07;8.40;99.90
39957;DHT22;48483;44.640;7.494;2022-11-28T14:24:54;8.40;99.90
39957;DHT22;48483;44.640;7.494;2022-11-28T14:27:25;8.40;99.90
39957;DHT22;48483;44.640;7.494;2022-11-28T14:29:54;8.40;99.90
39957;DHT22;48483;44.640;7.494;2022-11-28T14:32:30;8.30;99.90
39957;DHT22;48483;44.640;7.494;2022-11-28T14:35:00;8.40;99.90
39957;DHT22;48483;44.640;7.494;2022-11-28T14:40:58;8.40;99.90
39957;DHT22;48483;44.640;7.494;2022-11-28T14:43:28;8.50;99.90
39957;DHT22;48483;44.640;7.494;2022-11-28T14:46:29;8.40;99.90
39957;DHT22;48483;44.640;7.494;2022-11-28T14:49:17;8.40;99.90
39957;DHT22;48483;44.640;7.494;2022-11-28T14:52:20;8.50;99.90
39957;DHT22;48483;44.640;7.494;2022-11-28T14:54:49;8.40;99.90
39957;DHT22;48483;44.640;7.494;2022-11-28T14:57:19;8.40;99.90
39957;DHT22;48483;44.640;7.494;2022-11-28T14:59:48;8.40;99.90
39957;DHT22;48483;44.640;7.494;2022-11-28T15:02:30;8.40;99.90
39957;DHT22;48483;44.640;7.494;2022-11-28T15:05:07;8.40;99.90
39957;DHT22;48483;44.640;7.494;2022-11-28T15:07:45;8.40;99.90
39957;DHT22;48483;44.640;7.494;2022-11-28T15:10:21;8.40;99.90
39957;DHT22;48483;44.640;7.494;2022-11-28T15:12:59;8.40;99.90
39957;DHT22;48483;44.640;7.494;2022-11-28T15:15:28;8.40;99.90
39957;DHT22;48483;44.640;7.494;2022-11-28T15:17:58;8.40;99.90
39957;DHT22;48483;44.640;7.494;2022-11-28T15:20:28;8.30;99.90
39957;DHT22;48483;44.640;7.494;2022-11-28T15:22:57;8.30;99.90
39957;DHT22;48483;44.640;7.494;2022-11-28T15:25:27;8.30;99.90
39957;DHT22;48483;44.640;7.494;2022-11-28T15:28:14;8.30;99.90
39957;DHT22;48483;44.640;7.494;2022-11-28T15:30:44;8.30;99.90
39957;DHT22;48483;44.640;7.494;2022-11-28T15:33:12;8.30;99.90
39957;DHT22;48483;44.640;7.494;2022-11-28T15:35:39;8.30;99.90
39957;DHT22;48483;44.640;7.494;2022-11-28T15:38:13;8.30;99.90
39957;DHT22;48483;44.640;7.494;2022-11-28T15:40:47;8.20;99.90
39957;DHT22;48483;44.640;7.494;2022-11-28T15:43:14;8.30;99.90
39957;DHT22;48483;44.640;7.494;2022-11-28T15:45:42;8.20;99.90
39957;DHT22;48483;44.640;7.494;2022-11-28T15:48:25;8.20;99.90
39957;DHT22;48483;44.640;7.494;2022-11-28T15:50:55;8.20;99.90
39957;DHT22;48483;44.640;7.494;2022-11-28T15:53:21;8.20;99.90
39957;DHT22;48483;44.640;7.494;2022-11-28T15:56:06;8.20;99.90
39957;DHT22;48483;44.640;7.494;2022-11-28T15:58:33;8.10;99.90
39957;DHT22;48483;44.640;7.494;2022-11-28T16:01:07;8.10;99.90
39957;DHT22;48483;44.640;7.494;2022-11-28T16:03:39;8.10;99.90
39957;DHT22;48483;44.640;7.494;2022-11-28T16:06:07;8.10;99.90
39957;DHT22;48483;44.640;7.494;2022-11-28T16:08:36;8.00;99.90
39957;DHT22;48483;44.640;7.494;2022-11-28T16:11:07;8.00;99.90
39957;DHT22;48483;44.640;7.494;2022-11-28T16:13:37;8.00;99.90
39957;DHT22;48483;44.640;7.494;2022-11-28T16:16:08;8.00;99.90
39957;DHT22;48483;44.640;7.494;2022-11-28T16:18:36;7.90;99.90
39957;DHT22;48483;44.640;7.494;2022-11-28T16:21:03;7.90;99.90
39957;DHT22;48483;44.640;7.494;2022-11-28T16:23:33;7.90;99.90
39957;DHT22;48483;44.640;7.494;2022-11-28T16:26:01;7.80;99.90
39957;DHT22;48483;44.640;7.494;2022-11-28T16:28:34;7.80;99.90
39957;DHT22;48483;44.640;7.494;2022-11-28T16:31:01;7.80;99.90
39957;DHT22;48483;44.640;7.494;2022-11-28T16:33:39;7.70;99.90